createdAt,value
2016-09-09T00:00:11.966Z,1000.72
2016-09-09T00:00:33.698Z,1001.14
2016-09-09T00:00:55.561Z,1000.93
2016-09-09T00:01:18.300Z,1000.79
2016-09-09T00:01:40.057Z,1000.73
2016-09-09T00:02:01.784Z,1000.90
2016-09-09T00:02:23.506Z,1000.77
2016-09-09T00:02:45.238Z,1000.45
2016-09-09T00:03:06.971Z,1000.51
2016-09-09T00:03:28.693Z,1000.63
2016-09-09T00:03:50.408Z,1000.88
2016-09-09T00:04:12.145Z,1001.10
2016-09-09T00:04:43.404Z,1001.09
2016-09-09T00:05:05.158Z,1000.68
2016-09-09T00:05:26.904Z,1000.72
2016-09-09T00:05:51.349Z,1000.85
2016-09-09T00:06:13.077Z,1000.88
2016-09-09T00:06:34.812Z,1000.76
2016-09-09T00:07:10.850Z,1000.72
2016-09-09T00:07:37.342Z,1000.80
2016-09-09T00:08:03.842Z,1001.09
2016-09-09T00:08:25.576Z,1000.68
2016-09-09T00:08:49.881Z,1000.51
2016-09-09T00:09:38.105Z,1000.72
2016-09-09T00:10:04.597Z,1000.49
2016-09-09T00:10:31.097Z,1000.67
2016-09-09T00:10:52.827Z,1000.83
2016-09-09T00:11:15.563Z,1000.93
2016-09-09T00:11:37.327Z,1000.80
2016-09-09T00:12:00.056Z,1000.60
2016-09-09T00:12:21.778Z,1000.75
2016-09-09T00:12:43.506Z,1000.87
2016-09-09T00:13:10.008Z,1000.80
2016-09-09T00:13:31.730Z,1000.68
2016-09-09T00:13:53.454Z,1000.81
2016-09-09T00:14:15.176Z,1000.64
2016-09-09T00:14:36.933Z,1000.93
2016-09-09T00:15:03.420Z,1000.78
2016-09-09T00:15:29.957Z,1000.61
2016-09-09T00:15:56.449Z,1000.98
2016-09-09T00:16:22.942Z,1000.63
2016-09-09T00:16:44.661Z,1000.90
2016-09-09T00:17:06.392Z,1000.86
2016-09-09T00:17:28.133Z,1000.59
2016-09-09T00:17:54.622Z,1000.70
2016-09-09T00:18:16.357Z,1000.64
2016-09-09T00:18:38.110Z,1000.42
2016-09-09T00:18:59.836Z,1000.76
2016-09-09T00:19:26.338Z,1000.78
2016-09-09T00:20:17.240Z,1000.75
2016-09-09T00:20:38.967Z,1000.54
2016-09-09T00:21:01.688Z,1000.90
2016-09-09T00:21:23.406Z,1000.86
2016-09-09T00:21:45.135Z,1000.69
2016-09-09T00:22:09.387Z,1000.71
2016-09-09T00:22:40.657Z,1000.71
2016-09-09T00:23:07.151Z,1000.74
2016-09-09T00:23:32.555Z,1000.77
2016-09-09T00:23:59.051Z,1000.82
2016-09-09T00:24:20.770Z,1001.05
2016-09-09T00:24:52.044Z,1000.92
2016-09-09T00:25:13.781Z,1000.78
2016-09-09T00:25:35.515Z,1000.79
2016-09-09T00:26:00.110Z,1000.69
2016-09-09T00:26:26.610Z,1000.81
2016-09-09T00:26:56.057Z,1000.87
2016-09-09T00:27:17.797Z,1000.70
2016-09-09T00:27:39.522Z,1000.88
2016-09-09T00:28:01.246Z,1000.73
2016-09-09T00:28:23.000Z,1000.53
2016-09-09T00:28:46.731Z,1000.65
2016-09-09T00:29:08.447Z,1000.52
2016-09-09T00:29:34.933Z,1000.91
2016-09-09T00:29:57.669Z,1000.85
2016-09-09T00:30:19.387Z,1000.83
2016-09-09T00:30:45.887Z,1000.68
2016-09-09T00:31:34.111Z,1000.74
2016-09-09T00:31:55.842Z,1000.92
2016-09-09T00:32:17.573Z,1000.70
2016-09-09T00:32:49.839Z,1000.78
2016-09-09T00:33:16.341Z,1000.57
2016-09-09T00:33:39.087Z,1000.63
2016-09-09T00:34:00.862Z,1000.77
2016-09-09T00:34:22.588Z,1000.76
2016-09-09T00:34:45.304Z,1000.99
2016-09-09T00:35:08.082Z,1000.98
2016-09-09T00:35:34.571Z,1001.01
2016-09-09T00:35:59.138Z,1000.93
2016-09-09T00:36:23.944Z,1001.11
2016-09-09T00:36:46.677Z,1000.82
2016-09-09T00:37:13.167Z,1000.66
2016-09-09T00:37:34.907Z,1000.73
2016-09-09T00:37:56.657Z,1000.80
2016-09-09T00:38:18.456Z,1000.66
2016-09-09T00:38:40.166Z,1000.80
2016-09-09T00:39:01.893Z,1000.65
2016-09-09T00:39:23.624Z,1000.81
2016-09-09T00:39:45.358Z,1001.12
2016-09-09T00:40:07.087Z,1000.92
2016-09-09T00:40:28.821Z,1000.79
2016-09-09T00:40:50.574Z,1000.87
2016-09-09T00:41:12.313Z,1001.01
2016-09-09T00:41:34.085Z,1000.95
2016-09-09T00:41:55.806Z,1000.87
2016-09-09T00:42:17.544Z,1000.92
2016-09-09T00:42:39.278Z,1000.88
2016-09-09T00:43:01.080Z,1000.94
2016-09-09T00:43:22.811Z,1000.97
2016-09-09T00:43:44.529Z,1001.13
2016-09-09T00:44:06.258Z,1001.12
2016-09-09T00:44:27.990Z,1001.12
2016-09-09T00:44:49.724Z,1001.30
2016-09-09T00:45:11.455Z,1001.05
2016-09-09T00:45:36.177Z,1000.96
2016-09-09T00:45:57.908Z,1000.74
2016-09-09T00:46:19.657Z,1000.93
2016-09-09T00:46:41.410Z,1000.90
2016-09-09T00:47:03.141Z,1000.88
2016-09-09T00:47:24.850Z,1001.02
2016-09-09T00:47:46.583Z,1001.00
2016-09-09T00:48:08.312Z,1001.03
2016-09-09T00:48:30.041Z,1001.01
2016-09-09T00:48:51.798Z,1000.94
2016-09-09T00:49:13.531Z,1000.94
2016-09-09T00:49:35.270Z,1001.16
2016-09-09T00:49:56.994Z,1001.37
2016-09-09T00:50:18.725Z,1001.21
2016-09-09T00:50:40.438Z,1001.29
2016-09-09T00:51:06.959Z,1001.14
2016-09-09T00:51:28.690Z,1000.83
2016-09-09T00:51:51.477Z,1001.21
2016-09-09T00:52:13.209Z,1001.20
2016-09-09T00:52:35.926Z,1001.23
2016-09-09T00:52:57.653Z,1000.89
2016-09-09T00:53:45.896Z,1000.76
2016-09-09T00:54:12.396Z,1000.75
2016-09-09T00:54:34.123Z,1000.94
2016-09-09T00:54:56.940Z,1000.86
2016-09-09T00:55:18.671Z,1000.75
2016-09-09T00:55:45.148Z,1000.69
2016-09-09T00:56:06.866Z,1000.94
2016-09-09T00:56:28.587Z,1000.95
2016-09-09T00:56:55.083Z,1000.87
2016-09-09T00:57:16.806Z,1000.98
2016-09-09T00:57:39.535Z,1001.12
2016-09-09T00:58:01.269Z,1001.19
2016-09-09T00:58:23.045Z,1001.07
2016-09-09T00:58:44.770Z,1001.04
2016-09-09T00:59:11.260Z,1000.96
2016-09-09T00:59:32.984Z,1000.97
2016-09-09T00:59:55.736Z,1000.87
2016-09-09T01:00:18.457Z,1000.93
2016-09-09T01:00:40.185Z,1000.95
2016-09-09T01:01:06.681Z,1001.04
2016-09-09T01:01:59.667Z,1001.07
2016-09-09T01:02:21.404Z,1001.16
2016-09-09T01:02:45.129Z,1001.03
2016-09-09T01:03:06.895Z,1001.01
2016-09-09T01:03:28.619Z,1000.94
2016-09-09T01:03:50.357Z,1001.07
2016-09-09T01:04:13.110Z,1001.10
2016-09-09T01:04:40.620Z,1001.21
2016-09-09T01:05:03.350Z,1001.06
2016-09-09T01:05:25.081Z,1000.96
2016-09-09T01:05:47.820Z,1001.13
2016-09-09T01:06:10.553Z,1001.11
2016-09-09T01:06:32.318Z,1001.13
2016-09-09T01:06:54.034Z,1001.03
2016-09-09T01:07:15.769Z,1001.02
2016-09-09T01:07:38.493Z,1000.89
2016-09-09T01:08:01.219Z,1000.77
2016-09-09T01:08:25.555Z,1000.86
2016-09-09T01:08:47.298Z,1001.27
2016-09-09T01:09:09.024Z,1001.43
2016-09-09T01:09:30.738Z,1001.32
2016-09-09T01:09:52.457Z,1001.27
2016-09-09T01:10:15.186Z,1001.31
2016-09-09T01:11:03.423Z,1000.85
2016-09-09T01:11:25.272Z,1001.38
2016-09-09T01:11:46.994Z,1001.26
2016-09-09T01:12:08.725Z,1001.04
2016-09-09T01:12:30.450Z,1001.10
2016-09-09T01:12:52.178Z,1001.03
2016-09-09T01:13:13.906Z,1000.86
2016-09-09T01:13:35.637Z,1001.00
2016-09-09T01:13:57.359Z,1000.97
2016-09-09T01:14:19.087Z,1000.99
2016-09-09T01:14:40.815Z,1001.33
2016-09-09T01:15:02.556Z,1001.41
2016-09-09T01:15:24.277Z,1001.05
2016-09-09T01:15:46.035Z,1000.84
2016-09-09T01:16:07.766Z,1001.05
2016-09-09T01:16:29.491Z,1001.08
2016-09-09T01:16:51.221Z,1001.11
2016-09-09T01:17:12.953Z,1001.04
2016-09-09T01:17:39.448Z,1001.19
2016-09-09T01:18:01.174Z,1000.88
2016-09-09T01:18:22.902Z,1000.96
2016-09-09T01:18:44.633Z,1001.33
2016-09-09T01:19:06.355Z,1001.23
2016-09-09T01:19:28.069Z,1001.08
2016-09-09T01:19:50.802Z,1001.38
2016-09-09T01:20:12.560Z,1001.29
2016-09-09T01:20:35.328Z,1001.33
2016-09-09T01:20:57.059Z,1001.23
2016-09-09T01:21:18.773Z,1001.23
2016-09-09T01:21:40.518Z,1000.99
2016-09-09T01:22:02.231Z,1001.12
2016-09-09T01:22:23.954Z,1001.07
2016-09-09T01:22:45.676Z,1001.16
2016-09-09T01:23:07.475Z,1001.10
2016-09-09T01:23:29.205Z,1001.11
2016-09-09T01:23:50.940Z,1000.95
2016-09-09T01:24:12.662Z,1001.20
2016-09-09T01:24:34.400Z,1001.34
2016-09-09T01:24:56.138Z,1001.36
2016-09-09T01:25:17.861Z,1001.31
2016-09-09T01:25:39.584Z,1001.38
2016-09-09T01:26:01.312Z,1001.03
2016-09-09T01:26:23.042Z,1001.20
2016-09-09T01:26:44.755Z,1001.13
2016-09-09T01:27:06.476Z,1000.95
2016-09-09T01:27:28.201Z,1000.87
2016-09-09T01:27:54.709Z,1001.00
2016-09-09T01:28:16.454Z,1001.03
2016-09-09T01:28:38.169Z,1001.12
2016-09-09T01:28:59.907Z,1000.97
2016-09-09T01:29:21.631Z,1001.09
2016-09-09T01:29:44.361Z,1001.25
2016-09-09T01:30:06.090Z,1001.74
2016-09-09T01:30:28.822Z,1001.48
2016-09-09T01:30:50.544Z,1001.45
2016-09-09T01:31:17.048Z,1001.25
2016-09-09T01:31:38.825Z,1001.25
2016-09-09T01:32:00.576Z,1001.12
2016-09-09T01:32:22.300Z,1001.00
2016-09-09T01:32:44.032Z,1001.08
2016-09-09T01:33:05.763Z,1001.22
2016-09-09T01:33:27.481Z,1001.22
2016-09-09T01:33:49.206Z,1001.19
2016-09-09T01:34:11.008Z,1001.25
2016-09-09T01:34:32.723Z,1001.45
2016-09-09T01:34:55.446Z,1001.25
2016-09-09T01:35:17.183Z,1001.10
2016-09-09T01:35:38.905Z,1000.92
2016-09-09T01:36:01.648Z,1001.03
2016-09-09T01:36:23.395Z,1000.97
2016-09-09T01:36:45.139Z,1001.08
2016-09-09T01:37:11.637Z,1001.38
2016-09-09T01:37:36.333Z,1001.42
2016-09-09T01:37:58.061Z,1001.43
2016-09-09T01:38:19.836Z,1001.46
2016-09-09T01:38:41.568Z,1001.49
2016-09-09T01:39:03.299Z,1001.13
2016-09-09T01:39:25.024Z,1001.13
2016-09-09T01:39:46.752Z,1001.24
2016-09-09T01:40:08.509Z,1001.31
2016-09-09T01:40:30.236Z,1001.41
2016-09-09T01:40:51.944Z,1001.23
2016-09-09T01:41:13.667Z,1001.23
2016-09-09T01:41:35.401Z,1001.36
2016-09-09T01:41:57.119Z,1001.40
2016-09-09T01:42:18.861Z,1001.36
2016-09-09T01:42:45.347Z,1001.30
2016-09-09T01:43:07.071Z,1001.17
2016-09-09T01:43:28.800Z,1001.18
2016-09-09T01:43:50.525Z,1001.23
2016-09-09T01:44:12.253Z,1001.51
2016-09-09T01:44:33.984Z,1001.42
2016-09-09T01:44:55.705Z,1001.94
2016-09-09T01:45:17.427Z,1001.78
2016-09-09T01:45:39.151Z,1001.72
2016-09-09T01:46:05.645Z,1001.65
2016-09-09T01:46:27.370Z,1001.38
2016-09-09T01:46:49.094Z,1001.34
2016-09-09T01:47:10.812Z,1001.48
2016-09-09T01:47:32.545Z,1001.56
2016-09-09T01:47:54.268Z,1001.32
2016-09-09T01:48:16.004Z,1001.36
2016-09-09T01:48:37.728Z,1001.39
2016-09-09T01:48:59.465Z,1001.48
2016-09-09T01:49:21.190Z,1001.33
2016-09-09T01:49:42.919Z,1001.24
2016-09-09T01:50:04.647Z,1001.42
2016-09-09T01:50:26.378Z,1001.38
2016-09-09T01:50:48.096Z,1001.15
2016-09-09T01:51:09.824Z,1001.14
2016-09-09T01:51:31.551Z,1001.33
2016-09-09T01:52:24.538Z,1001.13
2016-09-09T01:52:46.271Z,1001.48
2016-09-09T01:53:07.987Z,1001.55
2016-09-09T01:53:29.712Z,1001.49
2016-09-09T01:53:52.429Z,1001.56
2016-09-09T01:54:14.170Z,1001.42
2016-09-09T01:54:35.904Z,1001.38
2016-09-09T01:54:58.639Z,1001.25
2016-09-09T01:55:20.371Z,1001.23
2016-09-09T01:55:42.092Z,1001.30
2016-09-09T01:56:03.824Z,1001.43
2016-09-09T01:56:25.559Z,1001.39
2016-09-09T01:56:47.276Z,1001.24
2016-09-09T01:57:09.043Z,1001.39
2016-09-09T01:57:31.780Z,1001.20
2016-09-09T01:57:53.520Z,1001.50
2016-09-09T01:58:17.239Z,1001.58
2016-09-09T01:58:38.953Z,1001.47
2016-09-09T01:59:00.675Z,1001.36
2016-09-09T01:59:22.527Z,1001.34
2016-09-09T01:59:44.249Z,1001.47
2016-09-09T02:00:37.235Z,1001.80
2016-09-09T02:01:04.207Z,1001.70
2016-09-09T02:01:30.691Z,1001.56
2016-09-09T02:01:57.180Z,1001.42
2016-09-09T02:02:18.905Z,1001.28
2016-09-09T02:02:40.621Z,1001.65
2016-09-09T02:03:02.367Z,1001.64
2016-09-09T02:03:24.102Z,1001.52
2016-09-09T02:03:45.837Z,1001.75
2016-09-09T02:04:12.329Z,1001.43
2016-09-09T02:04:38.831Z,1001.21
2016-09-09T02:05:03.084Z,1001.29
2016-09-09T02:05:26.809Z,1001.71
2016-09-09T02:05:48.518Z,1001.63
2016-09-09T02:06:10.253Z,1001.56
2016-09-09T02:06:32.013Z,1001.35
2016-09-09T02:07:22.767Z,1001.38
2016-09-09T02:07:44.486Z,1001.42
2016-09-09T02:08:06.224Z,1001.38
2016-09-09T02:08:27.952Z,1001.56
2016-09-09T02:08:49.686Z,1001.73
2016-09-09T02:09:11.411Z,1001.58
2016-09-09T02:09:34.134Z,1001.59
2016-09-09T02:09:55.856Z,1001.42
2016-09-09T02:10:17.584Z,1001.46
2016-09-09T02:10:39.302Z,1001.58
2016-09-09T02:11:01.042Z,1001.58
2016-09-09T02:11:22.770Z,1001.38
2016-09-09T02:11:44.515Z,1001.43
2016-09-09T02:12:06.243Z,1001.66
2016-09-09T02:12:27.968Z,1001.72
2016-09-09T02:12:49.689Z,1001.66
2016-09-09T02:13:11.418Z,1001.62
2016-09-09T02:13:33.136Z,1001.73
2016-09-09T02:14:21.341Z,1001.53
2016-09-09T02:14:43.061Z,1001.50
2016-09-09T02:15:04.784Z,1001.39
2016-09-09T02:15:26.524Z,1001.26
2016-09-09T02:15:48.249Z,1001.22
2016-09-09T02:16:09.974Z,1001.31
2016-09-09T02:16:31.690Z,1001.54
2016-09-09T02:16:53.404Z,1001.69
2016-09-09T02:17:15.126Z,1001.49
2016-09-09T02:17:36.850Z,1001.68
2016-09-09T02:17:58.576Z,1001.88
2016-09-09T02:18:20.304Z,1001.57
2016-09-09T02:18:42.022Z,1001.50
2016-09-09T02:19:03.743Z,1001.53
2016-09-09T02:19:25.472Z,1001.53
2016-09-09T02:19:47.210Z,1001.70
2016-09-09T02:20:08.941Z,1001.76
2016-09-09T02:20:30.659Z,1001.68
2016-09-09T02:20:52.390Z,1001.56
2016-09-09T02:21:14.112Z,1001.58
2016-09-09T02:21:35.920Z,1001.47
2016-09-09T02:21:57.632Z,1001.49
2016-09-09T02:22:19.369Z,1001.50
2016-09-09T02:22:42.073Z,1001.85
2016-09-09T02:23:03.807Z,1001.72
2016-09-09T02:23:25.533Z,1001.46
2016-09-09T02:24:13.747Z,1001.42
2016-09-09T02:24:40.048Z,1001.70
2016-09-09T02:25:01.785Z,1001.62
2016-09-09T02:25:23.507Z,1001.67
2016-09-09T02:25:45.254Z,1001.96
2016-09-09T02:26:06.973Z,1001.80
2016-09-09T02:26:28.787Z,1001.81
2016-09-09T02:26:50.495Z,1001.94
2016-09-09T02:27:16.989Z,1001.53
2016-09-09T02:27:38.707Z,1001.53
2016-09-09T02:28:00.432Z,1001.75
2016-09-09T02:28:31.693Z,1001.82
2016-09-09T02:28:53.423Z,1001.68
2016-09-09T02:29:15.146Z,1001.67
2016-09-09T02:29:36.876Z,1001.47
2016-09-09T02:29:58.666Z,1001.32
2016-09-09T02:30:20.387Z,1001.50
2016-09-09T02:30:42.105Z,1001.47
2016-09-09T02:31:03.833Z,1001.93
2016-09-09T02:31:25.555Z,1001.83
2016-09-09T02:31:47.277Z,1001.81
2016-09-09T02:32:09.002Z,1001.74
2016-09-09T02:32:30.733Z,1001.89
2016-09-09T02:32:52.450Z,1001.53
2016-09-09T02:33:14.215Z,1001.56
2016-09-09T02:33:35.940Z,1001.52
2016-09-09T02:33:57.661Z,1001.52
2016-09-09T02:34:19.386Z,1001.47
2016-09-09T02:34:41.107Z,1001.39
2016-09-09T02:35:02.825Z,1001.46
2016-09-09T02:35:24.557Z,1001.39
2016-09-09T02:35:46.298Z,1001.53
2016-09-09T02:36:08.032Z,1001.68
2016-09-09T02:36:29.757Z,1001.61
2016-09-09T02:36:51.501Z,1001.53
2016-09-09T02:37:13.222Z,1001.75
2016-09-09T02:37:34.947Z,1001.68
2016-09-09T02:37:56.720Z,1001.75
2016-09-09T02:38:18.442Z,1001.75
2016-09-09T02:39:06.665Z,1001.78
2016-09-09T02:39:28.393Z,1001.68
2016-09-09T02:39:50.125Z,1001.70
2016-09-09T02:40:16.618Z,1001.95
2016-09-09T02:40:38.372Z,1001.79
2016-09-09T02:41:00.089Z,1001.89
2016-09-09T02:41:21.824Z,1001.71
2016-09-09T02:41:43.552Z,1001.83
2016-09-09T02:42:05.274Z,1001.84
2016-09-09T02:42:27.002Z,1002.11
2016-09-09T02:42:48.764Z,1002.13
2016-09-09T02:43:11.500Z,1001.94
2016-09-09T02:43:34.240Z,1001.88
2016-09-09T02:43:55.965Z,1001.84
2016-09-09T02:44:17.713Z,1001.86
2016-09-09T02:44:39.460Z,1001.91
2016-09-09T02:45:01.190Z,1001.89
2016-09-09T02:45:22.909Z,1001.68
2016-09-09T02:45:45.661Z,1001.82
2016-09-09T02:46:07.398Z,1001.76
2016-09-09T02:46:29.114Z,1001.74
2016-09-09T02:46:50.837Z,1001.78
2016-09-09T02:47:12.570Z,1001.67
2016-09-09T02:47:35.289Z,1001.76
2016-09-09T02:47:57.024Z,1002.06
2016-09-09T02:48:23.524Z,1001.83
2016-09-09T02:48:45.263Z,1001.68
2016-09-09T02:49:07.001Z,1001.82
2016-09-09T02:49:28.724Z,1001.72
2016-09-09T02:49:50.441Z,1001.89
2016-09-09T02:50:12.166Z,1001.98
2016-09-09T02:50:33.898Z,1001.87
2016-09-09T02:50:55.618Z,1001.87
2016-09-09T02:51:17.373Z,1001.95
2016-09-09T02:51:39.104Z,1001.89
2016-09-09T02:52:00.938Z,1001.99
2016-09-09T02:52:22.678Z,1001.90
2016-09-09T02:52:44.396Z,1001.95
2016-09-09T02:53:06.124Z,1001.79
2016-09-09T02:53:27.849Z,1001.87
2016-09-09T02:53:49.572Z,1001.72
2016-09-09T02:54:11.306Z,1001.96
2016-09-09T02:54:34.048Z,1001.85
2016-09-09T02:54:55.769Z,1001.79
2016-09-09T02:55:17.530Z,1001.44
2016-09-09T02:55:39.262Z,1001.63
2016-09-09T02:56:00.986Z,1001.66
2016-09-09T02:56:22.714Z,1001.62
2016-09-09T02:56:44.445Z,1001.61
2016-09-09T02:57:06.173Z,1001.61
2016-09-09T02:57:27.924Z,1001.63
2016-09-09T02:57:54.428Z,1001.64
2016-09-09T02:58:16.154Z,1001.77
2016-09-09T02:58:37.891Z,1001.85
2016-09-09T02:58:59.626Z,1001.92
2016-09-09T02:59:21.347Z,1002.06
2016-09-09T02:59:43.056Z,1002.00
2016-09-09T03:00:04.817Z,1001.76
2016-09-09T03:00:26.656Z,1001.61
2016-09-09T03:00:48.384Z,1001.91
2016-09-09T03:01:10.116Z,1001.64
2016-09-09T03:01:31.853Z,1001.92
2016-09-09T03:01:53.596Z,1001.92
2016-09-09T03:02:15.322Z,1001.85
2016-09-09T03:02:37.049Z,1001.88
2016-09-09T03:02:59.776Z,1001.84
2016-09-09T03:03:48.110Z,1001.80
2016-09-09T03:04:09.835Z,1001.80
2016-09-09T03:04:31.642Z,1001.67
2016-09-09T03:04:53.357Z,1001.90
2016-09-09T03:05:15.101Z,1001.88
2016-09-09T03:05:36.819Z,1001.79
2016-09-09T03:05:58.535Z,1001.73
2016-09-09T03:06:20.255Z,1001.40
2016-09-09T03:06:42.006Z,1001.52
2016-09-09T03:07:03.731Z,1001.64
2016-09-09T03:07:25.462Z,1001.92
2016-09-09T03:07:47.197Z,1002.00
2016-09-09T03:08:08.924Z,1002.18
2016-09-09T03:08:30.649Z,1002.02
2016-09-09T03:08:53.378Z,1001.97
2016-09-09T03:09:17.930Z,1001.64
2016-09-09T03:09:39.664Z,1001.56
2016-09-09T03:10:01.395Z,1001.58
2016-09-09T03:10:24.125Z,1001.62
2016-09-09T03:10:47.850Z,1002.18
2016-09-09T03:11:09.577Z,1001.83
2016-09-09T03:11:32.435Z,1002.11
2016-09-09T03:11:54.170Z,1001.83
2016-09-09T03:12:15.903Z,1001.66
2016-09-09T03:12:37.623Z,1001.86
2016-09-09T03:12:59.348Z,1001.67
2016-09-09T03:13:21.079Z,1001.97
2016-09-09T03:13:42.797Z,1002.21
2016-09-09T03:14:04.524Z,1002.09
2016-09-09T03:14:28.250Z,1002.02
2016-09-09T03:14:49.971Z,1002.04
2016-09-09T03:15:11.715Z,1001.80
2016-09-09T03:15:33.437Z,1001.81
2016-09-09T03:15:55.167Z,1001.96
2016-09-09T03:16:17.894Z,1001.88
2016-09-09T03:16:39.619Z,1001.89
2016-09-09T03:17:01.571Z,1001.77
2016-09-09T03:17:28.058Z,1001.82
2016-09-09T03:17:54.556Z,1001.99
2016-09-09T03:18:16.285Z,1002.05
2016-09-09T03:18:38.023Z,1001.89
2016-09-09T03:19:00.746Z,1001.87
2016-09-09T03:19:22.470Z,1001.79
2016-09-09T03:19:44.335Z,1001.78
2016-09-09T03:20:06.057Z,1001.83
2016-09-09T03:20:28.781Z,1001.83
2016-09-09T03:20:50.502Z,1001.66
2016-09-09T03:21:13.222Z,1001.92
2016-09-09T03:21:34.937Z,1001.96
2016-09-09T03:21:57.661Z,1002.02
2016-09-09T03:22:19.383Z,1002.11
2016-09-09T03:22:45.875Z,1001.74
2016-09-09T03:23:07.594Z,1001.93
2016-09-09T03:23:29.308Z,1001.88
2016-09-09T03:23:52.039Z,1001.85
2016-09-09T03:24:55.328Z,1001.99
2016-09-09T03:25:17.056Z,1001.83
2016-09-09T03:25:43.555Z,1001.96
2016-09-09T03:26:05.280Z,1001.80
2016-09-09T03:26:28.020Z,1001.93
2016-09-09T03:26:49.744Z,1001.78
2016-09-09T03:27:12.473Z,1001.85
2016-09-09T03:27:36.201Z,1001.85
2016-09-09T03:27:57.911Z,1001.92
2016-09-09T03:28:19.635Z,1001.88
2016-09-09T03:28:46.134Z,1001.97
2016-09-09T03:29:08.858Z,1001.85
2016-09-09T03:29:30.589Z,1001.74
2016-09-09T03:29:52.310Z,1001.93
2016-09-09T03:30:16.086Z,1001.90
2016-09-09T03:30:39.824Z,1001.67
2016-09-09T03:31:01.543Z,1001.86
2016-09-09T03:31:24.275Z,1001.93
2016-09-09T03:31:50.777Z,1001.86
2016-09-09T03:32:12.504Z,1001.96
2016-09-09T03:32:34.237Z,1001.85
2016-09-09T03:33:22.491Z,1001.91
2016-09-09T03:33:44.214Z,1001.87
2016-09-09T03:34:05.945Z,1001.96
2016-09-09T03:34:28.678Z,1001.95
2016-09-09T03:34:50.400Z,1001.94
2016-09-09T03:35:12.164Z,1001.77
2016-09-09T03:35:33.894Z,1001.82
2016-09-09T03:35:55.626Z,1001.78
2016-09-09T03:36:17.379Z,1001.72
2016-09-09T03:37:10.377Z,1001.55
2016-09-09T03:37:32.116Z,1001.87
2016-09-09T03:38:20.339Z,1002.02
2016-09-09T03:38:44.051Z,1002.05
2016-09-09T03:39:05.775Z,1002.22
2016-09-09T03:39:54.013Z,1001.92
2016-09-09T03:40:16.729Z,1002.00
2016-09-09T03:40:43.226Z,1001.88
2016-09-09T03:41:04.947Z,1001.73
2016-09-09T03:41:26.685Z,1001.90
2016-09-09T03:41:48.412Z,1002.02
2016-09-09T03:42:10.141Z,1002.14
2016-09-09T03:42:31.875Z,1001.88
2016-09-09T03:42:53.593Z,1001.87
2016-09-09T03:43:15.321Z,1001.74
2016-09-09T03:43:37.043Z,1001.72
2016-09-09T03:43:58.777Z,1001.91
2016-09-09T03:44:20.490Z,1001.79
2016-09-09T03:44:42.218Z,1001.84
2016-09-09T03:45:03.939Z,1001.93
2016-09-09T03:45:25.661Z,1002.09
2016-09-09T03:45:47.395Z,1002.01
2016-09-09T03:46:09.121Z,1001.78
2016-09-09T03:46:30.851Z,1001.91
2016-09-09T03:46:52.573Z,1002.16
2016-09-09T03:47:14.304Z,1002.27
2016-09-09T03:47:36.041Z,1002.25
2016-09-09T03:47:57.757Z,1002.00
2016-09-09T03:48:19.492Z,1002.05
2016-09-09T03:48:41.203Z,1001.92
2016-09-09T03:49:02.925Z,1002.15
2016-09-09T03:49:24.652Z,1002.17
2016-09-09T03:49:46.374Z,1002.17
2016-09-09T03:50:08.097Z,1002.05
2016-09-09T03:50:29.878Z,1002.14
2016-09-09T03:50:51.597Z,1002.22
2016-09-09T03:51:13.322Z,1002.11
2016-09-09T03:51:35.037Z,1001.87
2016-09-09T03:51:56.765Z,1001.82
2016-09-09T03:52:18.480Z,1001.94
2016-09-09T03:52:40.205Z,1001.83
2016-09-09T03:53:01.929Z,1001.95
2016-09-09T03:53:23.654Z,1002.05
2016-09-09T03:53:45.379Z,1002.01
2016-09-09T03:54:07.110Z,1001.96
2016-09-09T03:54:28.842Z,1002.06
2016-09-09T03:54:50.582Z,1002.01
2016-09-09T03:55:12.304Z,1001.96
2016-09-09T03:55:38.796Z,1001.87
2016-09-09T03:56:00.515Z,1002.12
2016-09-09T03:56:22.234Z,1002.19
2016-09-09T03:56:43.961Z,1001.98
2016-09-09T03:57:05.673Z,1002.04
2016-09-09T03:57:27.405Z,1001.96
2016-09-09T03:57:49.133Z,1002.28
2016-09-09T03:58:10.860Z,1002.17
2016-09-09T03:58:32.570Z,1002.07
2016-09-09T03:58:54.290Z,1002.06
2016-09-09T03:59:16.054Z,1001.88
2016-09-09T03:59:37.827Z,1001.85
2016-09-09T03:59:59.555Z,1002.00
2016-09-09T04:00:21.283Z,1002.05
2016-09-09T04:00:44.006Z,1002.15
2016-09-09T04:01:05.735Z,1002.20
2016-09-09T04:01:27.478Z,1002.03
2016-09-09T04:01:53.978Z,1002.03
2016-09-09T04:02:15.711Z,1002.06
2016-09-09T04:02:37.430Z,1001.92
2016-09-09T04:02:59.178Z,1002.05
2016-09-09T04:03:23.718Z,1002.05
2016-09-09T04:03:45.437Z,1001.88
2016-09-09T04:04:07.181Z,1002.04
2016-09-09T04:04:28.892Z,1001.88
2016-09-09T04:04:50.621Z,1001.79
2016-09-09T04:05:12.348Z,1001.79
2016-09-09T04:05:38.858Z,1002.01
2016-09-09T04:06:00.576Z,1002.23
2016-09-09T04:06:22.304Z,1002.30
2016-09-09T04:06:44.032Z,1001.90
2016-09-09T04:07:05.751Z,1002.37
2016-09-09T04:07:27.481Z,1002.36
2016-09-09T04:07:49.224Z,1002.28
2016-09-09T04:08:10.953Z,1002.24
2016-09-09T04:08:32.687Z,1002.19
2016-09-09T04:09:20.902Z,1002.09
2016-09-09T04:09:42.627Z,1002.07
2016-09-09T04:10:04.349Z,1002.17
2016-09-09T04:10:26.077Z,1002.06
2016-09-09T04:10:47.817Z,1002.05
2016-09-09T04:11:09.542Z,1002.04
2016-09-09T04:11:31.268Z,1002.06
2016-09-09T04:11:52.988Z,1001.97
2016-09-09T04:12:14.717Z,1002.05
2016-09-09T04:12:36.455Z,1001.99
2016-09-09T04:12:58.183Z,1002.02
2016-09-09T04:13:19.908Z,1002.03
2016-09-09T04:13:41.622Z,1002.28
2016-09-09T04:14:03.350Z,1002.17
2016-09-09T04:14:25.075Z,1001.91
2016-09-09T04:14:46.790Z,1001.87
2016-09-09T04:15:08.525Z,1001.95
2016-09-09T04:15:30.252Z,1002.05
2016-09-09T04:15:51.974Z,1002.13
2016-09-09T04:16:13.818Z,1002.04
2016-09-09T04:16:35.545Z,1002.08
2016-09-09T04:16:57.271Z,1002.02
2016-09-09T04:17:18.998Z,1001.97
2016-09-09T04:17:40.726Z,1002.14
2016-09-09T04:18:02.445Z,1001.97
2016-09-09T04:18:24.166Z,1002.04
2016-09-09T04:18:45.894Z,1002.14
2016-09-09T04:19:07.620Z,1002.13
2016-09-09T04:19:34.118Z,1002.13
2016-09-09T04:19:55.850Z,1002.30
2016-09-09T04:20:17.568Z,1002.20
2016-09-09T04:20:39.389Z,1002.16
2016-09-09T04:21:01.136Z,1002.06
2016-09-09T04:21:22.854Z,1002.05
2016-09-09T04:21:44.581Z,1002.10
2016-09-09T04:22:07.302Z,1002.16
2016-09-09T04:22:29.027Z,1002.25
2016-09-09T04:22:50.762Z,1002.51
2016-09-09T04:23:12.489Z,1002.49
2016-09-09T04:23:34.221Z,1002.42
2016-09-09T04:23:55.936Z,1002.40
2016-09-09T04:24:17.671Z,1002.41
2016-09-09T04:24:39.398Z,1002.39
2016-09-09T04:25:01.136Z,1002.28
2016-09-09T04:25:23.888Z,1002.13
2016-09-09T04:25:45.631Z,1002.19
2016-09-09T04:26:07.383Z,1002.31
2016-09-09T04:26:30.093Z,1002.43
2016-09-09T04:26:51.845Z,1002.53
2016-09-09T04:27:13.625Z,1002.47
2016-09-09T04:27:35.338Z,1002.16
2016-09-09T04:27:57.075Z,1002.07
2016-09-09T04:28:18.819Z,1002.13
2016-09-09T04:28:40.541Z,1002.29
2016-09-09T04:29:02.253Z,1002.35
2016-09-09T04:29:23.987Z,1002.22
2016-09-09T04:29:45.712Z,1002.48
2016-09-09T04:30:07.434Z,1002.42
2016-09-09T04:30:29.153Z,1002.40
2016-09-09T04:30:50.876Z,1002.37
2016-09-09T04:31:12.602Z,1002.36
2016-09-09T04:31:34.339Z,1002.14
2016-09-09T04:32:22.547Z,1002.52
2016-09-09T04:32:44.297Z,1002.53
2016-09-09T04:33:07.008Z,1002.41
2016-09-09T04:33:29.741Z,1002.41
2016-09-09T04:33:51.468Z,1002.37
2016-09-09T04:34:13.209Z,1002.18
2016-09-09T04:34:39.692Z,1002.15
2016-09-09T04:35:01.424Z,1002.47
2016-09-09T04:35:24.145Z,1002.36
2016-09-09T04:35:45.988Z,1002.32
2016-09-09T04:36:07.714Z,1002.33
2016-09-09T04:36:29.453Z,1002.26
2016-09-09T04:36:51.192Z,1002.42
2016-09-09T04:37:12.925Z,1002.30
2016-09-09T04:37:39.418Z,1002.17
2016-09-09T04:38:06.918Z,1002.23
2016-09-09T04:38:28.640Z,1002.38
2016-09-09T04:38:50.371Z,1002.30
2016-09-09T04:39:12.083Z,1002.38
2016-09-09T04:39:33.814Z,1002.24
2016-09-09T04:39:56.531Z,1002.45